Time;durP1;ratioP1;P1;durP2;ratioP2;P2;SDS_P1;SDS_P2;PMS_P1;PMS_P2;Temp;Humidity;BMP_temperature;BMP_pressure;BME280_temperature;BME280_humidity;BME280_pressure;Samples;Min_cycle;Max_cycle;Signal;HPM_P1;HPM_P2
2024/03/22 00:00:55;;;;;;;37.03;14.45;;;9.50;99.90;;;;;;4968233;28;20030;-62
2024/03/22 00:03:21;;;;;;;35.67;14.30;;;9.50;99.90;;;;;;4973005;28;20536;-62
2024/03/22 00:05:47;;;;;;;32.85;14.70;;;9.50;99.90;;;;;;4976640;28;20022;-63
2024/03/22 00:08:13;;;;;;;38.75;15.43;;;9.50;99.90;;;;;;4971208;28;20707;-63
2024/03/22 00:10:38;;;;;;;36.10;15.07;;;9.50;99.90;;;;;;4967072;28;20113;-63
2024/03/22 00:13:04;;;;;;;40.03;14.32;;;9.50;99.90;;;;;;4970256;28;20062;-62
2024/03/22 00:15:30;;;;;;;37.65;14.30;;;9.60;99.90;;;;;;4974412;28;20042;-63
2024/03/22 00:17:55;;;;;;;34.25;14.98;;;9.70;99.90;;;;;;4968702;28;20061;-62
2024/03/22 00:20:22;;;;;;;43.10;15.15;;;9.60;99.90;;;;;;4970608;28;20104;-62
2024/03/22 00:22:47;;;;;;;36.65;14.65;;;9.60;99.90;;;;;;4969498;28;20044;-63
2024/03/22 00:25:13;;;;;;;34.15;12.73;;;9.60;99.90;;;;;;4972254;28;20032;-63
2024/03/22 00:27:39;;;;;;;39.00;14.70;;;9.50;99.90;;;;;;4971626;28;20026;-63
2024/03/22 00:30:05;;;;;;;34.83;14.20;;;9.60;99.90;;;;;;4984955;28;20040;-63
2024/03/22 00:32:31;;;;;;;36.20;14.02;;;9.60;99.90;;;;;;4977497;28;20038;-62
2024/03/22 00:34:56;;;;;;;35.85;14.50;;;9.60;99.90;;;;;;4984389;28;20045;-63
2024/03/22 00:37:22;;;;;;;35.20;14.55;;;9.50;99.90;;;;;;4974380;28;20041;-63
2024/03/22 00:39:47;;;;;;;38.63;16.30;;;9.50;99.90;;;;;;4980077;28;20051;-62
2024/03/22 00:42:13;;;;;;;34.45;14.63;;;9.60;99.90;;;;;;4969140;28;20046;-62
2024/03/22 00:44:38;;;;;;;34.40;14.57;;;9.50;99.90;;;;;;4984893;28;20098;-63
2024/03/22 00:47:05;;;;;;;35.53;14.23;;;9.50;99.90;;;;;;4981788;28;20029;-62
2024/03/22 00:49:31;;;;;;;35.83;13.57;;;9.50;99.90;;;;;;4973909;28;20019;-62
2024/03/22 00:51:57;;;;;;;32.97;13.85;;;9.60;99.90;;;;;;4973393;28;20089;-62
2024/03/22 00:54:23;;;;;;;38.60;13.68;;;9.60;99.90;;;;;;4968527;28;20030;-62
2024/03/22 00:56:48;;;;;;;34.20;13.95;;;9.60;99.90;;;;;;4970314;28;20390;-62
2024/03/22 00:59:14;;;;;;;33.38;13.27;;;9.60;99.90;;;;;;4997644;28;20041;-62
2024/03/22 01:01:40;;;;;;;31.10;12.90;;;9.70;99.90;;;;;;4975893;28;20022;-62
2024/03/22 01:04:05;;;;;;;35.55;13.90;;;9.70;99.90;;;;;;4972361;28;20031;-63
2024/03/22 01:06:31;;;;;;;34.28;13.38;;;9.80;99.90;;;;;;4976483;28;20157;-63
2024/03/22 01:08:56;;;;;;;33.45;13.30;;;9.90;99.90;;;;;;4974321;28;20474;-62
2024/03/22 01:11:22;;;;;;;36.97;15.05;;;10.00;99.90;;;;;;4976492;28;20116;-63
2024/03/22 01:13:48;;;;;;;36.63;13.55;;;10.10;99.90;;;;;;4976047;28;20027;-62
2024/03/22 01:16:13;;;;;;;32.85;12.70;;;10.10;99.90;;;;;;4968505;28;20376;-62
2024/03/22 01:18:39;;;;;;;32.78;13.05;;;10.10;99.90;;;;;;4978148;28;20031;-64
2024/03/22 01:21:05;;;;;;;35.50;13.10;;;10.20;99.90;;;;;;4975724;28;20394;-63
2024/03/22 01:23:31;;;;;;;33.65;13.23;;;10.30;99.90;;;;;;4978418;28;20038;-63
2024/03/22 01:25:56;;;;;;;32.63;13.32;;;10.30;99.90;;;;;;4977914;28;20031;-62
2024/03/22 01:28:22;;;;;;;31.15;12.18;;;10.30;99.90;;;;;;4976196;28;20054;-62
2024/03/22 01:30:48;;;;;;;30.83;10.80;;;10.30;99.90;;;;;;4981230;28;20057;-62
2024/03/22 01:33:13;;;;;;;22.50;8.93;;;10.40;99.90;;;;;;4985751;28;20040;-62
2024/03/22 01:35:39;;;;;;;34.50;14.02;;;10.40;99.90;;;;;;4986704;28;20024;-63
2024/03/22 01:38:04;;;;;;;35.97;13.82;;;10.40;99.90;;;;;;4978376;28;20489;-62
2024/03/22 01:40:31;;;;;;;35.08;13.60;;;10.40;99.90;;;;;;4983927;28;20050;-63
2024/03/22 01:42:57;;;;;;;32.97;14.25;;;10.40;99.90;;;;;;4978286;28;20027;-63
2024/03/22 01:45:25;;;;;;;37.05;14.07;;;10.40;99.90;;;;;;4980240;28;20359;-63
2024/03/22 01:47:54;;;;;;;37.05;14.52;;;10.40;99.90;;;;;;4975303;28;20476;-62
2024/03/22 01:50:21;;;;;;;34.58;13.82;;;10.40;99.90;;;;;;4978436;28;20034;-62
2024/03/22 01:52:47;;;;;;;39.35;15.23;;;10.40;99.90;;;;;;4978671;28;20042;-63
2024/03/22 01:55:13;;;;;;;38.35;14.20;;;10.40;99.90;;;;;;4981366;28;20495;-63
2024/03/22 01:57:40;;;;;;;35.78;14.40;;;10.30;99.90;;;;;;4970379;28;20030;-62
2024/03/22 02:00:08;;;;;;;37.25;14.35;;;10.30;99.90;;;;;;4982264;28;20096;-63
2024/03/22 02:02:34;;;;;;;38.10;15.35;;;10.30;99.90;;;;;;4983661;28;20033;-63
2024/03/22 02:04:59;;;;;;;33.55;14.05;;;10.40;99.90;;;;;;4978588;28;20035;-63
2024/03/22 02:07:29;;;;;;;37.47;14.88;;;10.40;99.90;;;;;;4979921;28;20034;-62
2024/03/22 02:09:55;;;;;;;34.97;13.30;;;10.40;99.90;;;;;;4979623;28;20023;-62
2024/03/22 02:12:21;;;;;;;36.75;13.55;;;10.50;99.90;;;;;;4978730;28;20035;-63
2024/03/22 02:14:46;;;;;;;35.22;13.32;;;10.50;99.90;;;;;;4979332;28;20057;-62
2024/03/22 02:17:12;;;;;;;31.23;13.10;;;10.60;99.90;;;;;;4977047;28;20049;-62
2024/03/22 02:19:37;;;;;;;34.17;12.13;;;10.50;99.90;;;;;;4977970;28;20474;-63
2024/03/22 02:22:03;;;;;;;35.50;14.18;;;10.60;99.90;;;;;;4980404;28;20027;-62
2024/03/22 02:24:29;;;;;;;38.90;12.98;;;10.60;99.90;;;;;;4978611;28;20026;-62
2024/03/22 02:26:54;;;;;;;35.63;13.20;;;10.60;99.90;;;;;;4975826;28;20018;-62
2024/03/22 02:29:20;;;;;;;32.92;13.40;;;10.60;99.90;;;;;;4979562;28;20053;-62
2024/03/22 02:31:45;;;;;;;37.83;14.80;;;10.60;99.90;;;;;;4979354;28;20065;-63
2024/03/22 02:34:11;;;;;;;36.25;15.40;;;10.60;99.90;;;;;;4979432;28;20034;-62
2024/03/22 02:36:36;;;;;;;39.55;14.98;;;10.60;99.90;;;;;;4984587;28;20031;-62
2024/03/22 02:39:02;;;;;;;33.50;13.73;;;10.50;99.90;;;;;;4978355;28;20374;-63
2024/03/22 02:41:28;;;;;;;36.90;14.23;;;10.50;99.90;;;;;;4980455;28;20015;-63
2024/03/22 02:43:53;;;;;;;36.42;14.38;;;10.60;99.90;;;;;;4978422;28;20355;-63
2024/03/22 02:46:19;;;;;;;36.28;14.00;;;10.50;99.90;;;;;;4979195;28;20045;-62
2024/03/22 02:48:44;;;;;;;33.55;13.93;;;10.50;99.90;;;;;;4980890;28;20049;-63
2024/03/22 02:51:10;;;;;;;34.78;13.45;;;10.50;99.90;;;;;;4978939;28;20038;-63
2024/03/22 02:53:35;;;;;;;31.10;13.05;;;10.50;99.90;;;;;;4977476;28;20046;-62
2024/03/22 02:56:01;;;;;;;33.20;13.55;;;10.60;99.90;;;;;;4978410;28;20747;-63
2024/03/22 02:58:27;;;;;;;32.00;13.00;;;10.50;99.90;;;;;;4978526;28;20033;-62
2024/03/22 03:00:52;;;;;;;45.00;15.70;;;10.60;99.90;;;;;;4976009;28;20414;-63
2024/03/22 03:03:18;;;;;;;34.92;13.77;;;10.50;99.90;;;;;;4974994;28;20412;-62
2024/03/22 03:05:46;;;;;;;33.90;13.68;;;10.60;99.90;;;;;;4979843;28;20023;-63
2024/03/22 03:08:12;;;;;;;32.83;12.98;;;10.60;99.90;;;;;;4977430;28;20096;-62
2024/03/22 03:10:37;;;;;;;30.92;13.98;;;10.60;99.90;;;;;;4980194;28;20030;-62
2024/03/22 03:13:03;;;;;;;29.33;12.15;;;10.60;99.90;;;;;;4976565;28;20085;-63
2024/03/22 03:15:29;;;;;;;33.53;13.82;;;10.50;99.90;;;;;;4979005;28;20060;-63
2024/03/22 03:17:54;;;;;;;30.17;10.90;;;10.60;99.90;;;;;;4977402;28;20038;-63
2024/03/22 03:20:20;;;;;;;34.63;13.48;;;10.60;99.90;;;;;;4977593;28;20022;-62
2024/03/22 03:22:46;;;;;;;27.80;11.35;;;10.60;99.90;;;;;;4978514;28;20104;-63
2024/03/22 03:25:11;;;;;;;33.20;14.25;;;10.60;99.90;;;;;;4979048;28;20035;-62
2024/03/22 03:27:37;;;;;;;32.17;12.95;;;10.60;99.90;;;;;;4976164;28;20525;-62
2024/03/22 03:30:03;;;;;;;25.35;9.23;;;10.50;99.90;;;;;;4976129;28;20027;-62
2024/03/22 03:32:28;;;;;;;35.58;14.43;;;10.50;99.90;;;;;;4979919;28;20075;-63
2024/03/22 03:34:54;;;;;;;29.70;12.00;;;10.60;99.90;;;;;;4995338;28;20026;-61
2024/03/22 03:37:20;;;;;;;34.75;13.82;;;10.60;99.90;;;;;;4985984;28;20486;-62
2024/03/22 03:39:45;;;;;;;31.92;13.40;;;10.60;99.90;;;;;;4979266;28;20046;-62
2024/03/22 03:42:11;;;;;;;32.95;13.32;;;10.60;99.90;;;;;;4976367;28;20031;-63
2024/03/22 03:44:37;;;;;;;30.80;12.90;;;10.60;99.90;;;;;;4979357;28;20031;-62
2024/03/22 03:47:03;;;;;;;32.40;13.55;;;10.60;99.90;;;;;;4974787;28;20518;-62
2024/03/22 03:49:28;;;;;;;36.28;13.82;;;10.60;99.90;;;;;;4971420;28;20034;-63
2024/03/22 03:51:54;;;;;;;33.28;12.73;;;10.60;99.90;;;;;;4977637;28;20034;-63
2024/03/22 03:54:20;;;;;;;31.38;13.40;;;10.60;99.90;;;;;;4976317;28;20477;-63
2024/03/22 03:56:45;;;;;;;32.90;12.70;;;10.60;99.90;;;;;;4974277;28;20023;-63
2024/03/22 03:59:11;;;;;;;34.45;13.77;;;10.70;99.90;;;;;;4977211;28;20026;-63
2024/03/22 04:01:36;;;;;;;31.77;13.48;;;10.60;99.90;;;;;;4975205;28;20023;-63
2024/03/22 04:04:03;;;;;;;30.90;12.75;;;10.60;99.90;;;;;;4979242;28;20485;-63
2024/03/22 04:06:29;;;;;;;32.05;13.55;;;10.50;99.90;;;;;;4976565;28;20114;-63
2024/03/22 04:08:54;;;;;;;29.27;12.43;;;10.60;99.90;;;;;;4978766;28;20101;-63
2024/03/22 04:11:20;;;;;;;32.50;13.77;;;10.50;99.90;;;;;;4975927;28;20056;-62
2024/03/22 04:13:47;;;;;;;30.88;13.00;;;10.60;99.90;;;;;;4978238;28;20080;-63
2024/03/22 04:16:13;;;;;;;30.33;12.35;;;10.50;99.90;;;;;;4977438;28;20133;-63
2024/03/22 04:18:38;;;;;;;33.55;13.85;;;10.40;99.90;;;;;;4975942;28;20122;-62
2024/03/22 04:21:04;;;;;;;32.72;13.35;;;10.40;99.90;;;;;;4978110;28;20026;-62
2024/03/22 04:23:30;;;;;;;23.23;8.55;;;10.30;99.90;;;;;;4976421;28;20050;-62
2024/03/22 04:25:58;;;;;;;31.95;13.07;;;10.30;99.90;;;;;;4969342;28;20033;-63
2024/03/22 04:28:24;;;;;;;31.80;13.60;;;10.30;99.90;;;;;;4979289;28;20026;-62
2024/03/22 04:31:01;;;;;;;37.63;14.25;;;10.40;99.90;;;;;;4976482;28;20478;-62
2024/03/22 04:33:27;;;;;;;30.23;12.80;;;10.40;99.90;;;;;;4988500;28;20083;-63
2024/03/22 04:35:54;;;;;;;30.75;13.75;;;10.40;99.90;;;;;;4982885;28;20049;-63
2024/03/22 04:38:20;;;;;;;34.75;13.40;;;10.50;99.90;;;;;;4975526;28;20113;-62
2024/03/22 04:40:45;;;;;;;34.25;13.52;;;10.40;99.90;;;;;;4977354;28;20113;-63
2024/03/22 04:43:11;;;;;;;32.28;13.15;;;10.40;99.90;;;;;;4976661;28;20031;-63
2024/03/22 04:45:37;;;;;;;35.55;14.38;;;10.40;99.90;;;;;;4978136;28;20042;-63
2024/03/22 04:48:04;;;;;;;33.13;13.63;;;10.40;99.90;;;;;;4975613;28;20387;-63
2024/03/22 04:50:30;;;;;;;33.20;14.18;;;10.40;99.90;;;;;;4975672;28;20106;-62
2024/03/22 04:52:56;;;;;;;26.08;10.65;;;10.40;99.90;;;;;;4979249;28;20686;-62
2024/03/22 04:55:21;;;;;;;31.02;12.20;;;10.40;99.90;;;;;;4976472;28;20035;-62
2024/03/22 04:57:47;;;;;;;29.77;11.80;;;10.40;99.90;;;;;;4986232;28;20029;-62
2024/03/22 05:00:13;;;;;;;29.20;11.88;;;10.50;99.90;;;;;;4975169;28;20030;-62
2024/03/22 05:02:40;;;;;;;24.60;9.73;;;10.50;99.90;;;;;;4976681;28;20139;-62
2024/03/22 05:05:05;;;;;;;31.23;12.10;;;10.60;99.90;;;;;;4976951;28;20489;-62
2024/03/22 05:07:31;;;;;;;25.52;10.45;;;10.60;99.90;;;;;;4979007;28;20022;-62
2024/03/22 05:09:57;;;;;;;28.83;13.23;;;10.60;99.90;;;;;;4975585;28;20022;-62
2024/03/22 05:12:22;;;;;;;30.50;12.02;;;10.60;99.90;;;;;;4979597;28;20027;-62
2024/03/22 05:14:48;;;;;;;27.55;12.02;;;10.60;99.90;;;;;;4978250;28;20042;-62
2024/03/22 05:17:14;;;;;;;27.30;11.27;;;10.60;99.90;;;;;;4976230;28;20042;-62
2024/03/22 05:19:39;;;;;;;23.50;9.88;;;10.60;99.90;;;;;;4975700;28;20024;-62
2024/03/22 05:22:06;;;;;;;26.70;11.30;;;10.60;99.90;;;;;;4978906;28;20026;-62
2024/03/22 05:24:31;;;;;;;27.30;11.20;;;10.60;99.90;;;;;;4976760;28;20026;-62
2024/03/22 05:26:57;;;;;;;29.33;9.98;;;10.60;99.90;;;;;;4975096;28;20022;-62
2024/03/22 05:29:23;;;;;;;29.77;10.90;;;10.60;99.90;;;;;;4975001;28;20396;-62
2024/03/22 05:31:51;;;;;;;25.23;10.20;;;10.60;99.90;;;;;;4973240;28;20084;-62
2024/03/22 05:34:17;;;;;;;24.75;9.95;;;10.70;99.90;;;;;;4986843;28;20091;-62
2024/03/22 05:36:43;;;;;;;25.90;10.73;;;10.70;99.90;;;;;;4982096;28;20038;-62
2024/03/22 05:39:10;;;;;;;25.58;11.00;;;10.70;99.90;;;;;;4975252;28;20388;-62
2024/03/22 05:41:36;;;;;;;24.55;9.90;;;10.60;99.90;;;;;;4975837;28;20023;-63
2024/03/22 05:44:02;;;;;;;24.05;11.30;;;10.60;99.90;;;;;;4974248;28;20088;-62
2024/03/22 05:46:28;;;;;;;22.25;10.20;;;10.70;99.90;;;;;;4975044;28;20117;-62
2024/03/22 05:48:54;;;;;;;25.92;10.32;;;10.70;99.90;;;;;;4977494;28;20442;-63
2024/03/22 05:51:20;;;;;;;27.48;11.50;;;10.70;99.90;;;;;;4977581;28;20083;-62
2024/03/22 05:53:45;;;;;;;24.80;10.25;;;10.70;99.90;;;;;;4978174;28;20413;-62
2024/03/22 05:56:11;;;;;;;21.95;8.25;;;10.80;99.90;;;;;;4977865;28;20031;-62
2024/03/22 05:58:37;;;;;;;20.83;9.57;;;10.80;99.90;;;;;;4978628;28;20030;-62
2024/03/22 06:01:03;;;;;;;26.35;10.18;;;10.90;99.90;;;;;;4974222;28;20489;-63
2024/03/22 06:03:29;;;;;;;22.42;10.93;;;10.90;99.90;;;;;;4977225;28;20054;-63
2024/03/22 06:05:59;;;;;;;26.35;10.80;;;10.90;99.90;;;;;;4971723;28;20022;-62
2024/03/22 06:08:25;;;;;;;26.23;10.07;;;10.90;99.90;;;;;;4975097;28;20069;-62
2024/03/22 06:10:52;;;;;;;21.38;8.75;;;11.00;99.90;;;;;;4980065;28;20080;-62
2024/03/22 06:13:17;;;;;;;20.15;8.90;;;11.10;99.90;;;;;;4967054;28;20023;-62
2024/03/22 06:15:47;;;;;;;22.08;9.30;;;11.20;99.90;;;;;;4980982;28;20061;-62
2024/03/22 06:18:12;;;;;;;21.10;8.83;;;11.20;99.90;;;;;;4965836;28;20054;-62
2024/03/22 06:20:38;;;;;;;22.63;10.68;;;11.30;99.90;;;;;;4972650;28;20258;-63
2024/03/22 06:23:04;;;;;;;16.08;6.78;;;11.20;99.90;;;;;;4973801;28;20051;-62
2024/03/22 06:25:29;;;;;;;22.35;10.18;;;11.30;99.90;;;;;;4973480;28;20054;-62
2024/03/22 06:27:55;;;;;;;20.08;8.57;;;11.40;99.90;;;;;;4977203;28;20019;-62
2024/03/22 06:30:20;;;;;;;19.23;8.10;;;11.40;99.90;;;;;;4973621;28;20458;-63
2024/03/22 06:32:46;;;;;;;21.65;8.35;;;11.40;99.90;;;;;;4980449;28;20066;-63
2024/03/22 06:35:12;;;;;;;18.25;7.72;;;11.50;99.90;;;;;;4969305;28;20382;-62
2024/03/22 06:37:40;;;;;;;18.75;7.85;;;11.60;99.90;;;;;;4971193;28;20031;-63
2024/03/22 06:40:07;;;;;;;19.17;7.57;;;11.70;99.90;;;;;;4971135;28;20109;-62
2024/03/22 06:42:32;;;;;;;20.13;8.98;;;11.80;99.90;;;;;;4978306;28;20466;-63
2024/03/22 06:44:58;;;;;;;21.63;8.23;;;11.80;99.90;;;;;;4969988;28;20037;-63
2024/03/22 06:47:24;;;;;;;17.40;7.05;;;11.90;99.90;;;;;;4970819;28;20043;-62
2024/03/22 06:49:49;;;;;;;14.65;6.82;;;12.00;99.90;;;;;;4971415;28;20073;-63
2024/03/22 06:52:15;;;;;;;14.13;6.53;;;12.00;99.90;;;;;;4971811;28;20390;-62
2024/03/22 06:54:41;;;;;;;17.70;7.88;;;12.00;99.90;;;;;;4974810;28;20030;-63
2024/03/22 06:57:06;;;;;;;19.50;7.18;;;12.10;99.90;;;;;;4973847;28;20134;-62
2024/03/22 06:59:32;;;;;;;18.20;7.70;;;12.10;99.90;;;;;;4976406;28;20129;-62
2024/03/22 07:01:58;;;;;;;17.52;7.20;;;12.10;99.90;;;;;;4975012;28;20026;-62
2024/03/22 07:04:23;;;;;;;15.43;6.63;;;12.20;99.90;;;;;;4977501;28;20122;-63
2024/03/22 07:06:49;;;;;;;18.20;7.15;;;12.30;99.90;;;;;;4979623;28;20090;-63
2024/03/22 07:09:15;;;;;;;15.88;7.10;;;12.30;99.90;;;;;;4971127;28;20026;-63
2024/03/22 07:11:41;;;;;;;13.30;6.15;;;12.40;99.90;;;;;;4975809;28;20378;-63
2024/03/22 07:14:07;;;;;;;11.95;6.18;;;12.50;99.90;;;;;;4971059;28;20034;-62
2024/03/22 07:16:32;;;;;;;15.73;7.35;;;12.50;99.90;;;;;;4969805;28;20162;-63
2024/03/22 07:18:58;;;;;;;17.45;6.85;;;12.50;99.90;;;;;;4978027;28;20072;-62
2024/03/22 07:21:24;;;;;;;21.25;7.18;;;12.60;99.90;;;;;;4988551;28;20023;-63
2024/03/22 07:23:50;;;;;;;15.45;7.10;;;12.60;99.90;;;;;;4977301;28;20367;-63
2024/03/22 07:26:15;;;;;;;14.75;6.93;;;12.60;99.90;;;;;;4970623;28;20146;-63
2024/03/22 07:28:41;;;;;;;16.50;8.25;;;12.70;99.90;;;;;;4966957;28;20023;-64
2024/03/22 07:31:06;;;;;;;19.33;8.50;;;12.70;99.90;;;;;;4969266;28;20199;-63
2024/03/22 07:33:33;;;;;;;19.70;8.50;;;12.70;99.90;;;;;;4991305;28;20532;-63
2024/03/22 07:36:05;;;;;;;14.10;6.47;;;12.80;99.90;;;;;;4978492;28;20022;-63
2024/03/22 07:38:31;;;;;;;17.13;6.35;;;12.80;99.90;;;;;;4967470;28;20118;-63
2024/03/22 07:40:57;;;;;;;17.52;6.38;;;12.90;99.90;;;;;;4969008;28;20535;-64
2024/03/22 07:43:22;;;;;;;14.95;6.93;;;13.00;99.90;;;;;;4991767;28;20123;-63
2024/03/22 07:45:48;;;;;;;14.77;7.20;;;13.10;99.90;;;;;;4977697;28;20049;-63
2024/03/22 07:48:14;;;;;;;18.77;7.68;;;13.20;99.90;;;;;;4978201;28;20042;-63
2024/03/22 07:50:39;;;;;;;14.77;5.93;;;13.30;99.90;;;;;;4974660;28;20022;-62
2024/03/22 07:53:05;;;;;;;19.58;9.40;;;13.30;99.90;;;;;;4984058;28;20049;-63
2024/03/22 07:55:30;;;;;;;15.10;5.68;;;13.50;99.90;;;;;;4986024;28;20022;-63
2024/03/22 07:57:57;;;;;;;16.25;6.25;;;13.60;99.90;;;;;;4967511;28;20031;-63
2024/03/22 08:00:25;;;;;;;16.08;7.22;;;13.50;99.90;;;;;;4971190;28;20042;-63
2024/03/22 08:02:51;;;;;;;18.13;8.13;;;13.40;99.90;;;;;;4972804;28;20500;-64
2024/03/22 08:05:16;;;;;;;14.57;6.35;;;13.60;99.90;;;;;;4974503;28;20078;-63
2024/03/22 08:07:43;;;;;;;20.63;7.53;;;13.60;99.90;;;;;;4973381;28;20114;-64
2024/03/22 08:10:09;;;;;;;22.27;8.90;;;13.60;99.90;;;;;;4969532;28;20023;-63
2024/03/22 08:12:35;;;;;;;20.65;9.85;;;13.70;99.90;;;;;;4988029;28;20034;-63
2024/03/22 08:15:01;;;;;;;18.75;7.85;;;13.60;99.90;;;;;;4970333;28;20516;-64
2024/03/22 08:17:27;;;;;;;16.30;7.78;;;13.70;99.90;;;;;;4983501;28;20038;-64
2024/03/22 08:19:52;;;;;;;19.65;8.82;;;13.80;99.90;;;;;;4995193;28;20515;-63
2024/03/22 08:22:18;;;;;;;21.45;9.75;;;13.90;99.90;;;;;;4970048;28;20019;-63
2024/03/22 08:24:45;;;;;;;18.00;8.63;;;14.00;99.90;;;;;;4972349;28;20018;-63
2024/03/22 08:27:11;;;;;;;19.75;9.27;;;13.90;99.90;;;;;;4967197;28;20474;-63
2024/03/22 08:29:47;;;;;;;23.38;8.52;;;14.10;99.90;;;;;;4978728;28;20093;-63
2024/03/22 08:32:13;;;;;;;20.42;9.10;;;14.00;99.90;;;;;;4963954;28;20034;-63
2024/03/22 08:34:38;;;;;;;21.25;9.60;;;14.20;99.90;;;;;;4978879;28;20019;-63
2024/03/22 08:37:04;;;;;;;21.63;9.80;;;14.20;99.90;;;;;;4978263;28;20042;-63
2024/03/22 08:39:30;;;;;;;23.75;10.23;;;14.40;99.90;;;;;;4971679;28;20095;-63
2024/03/22 08:41:56;;;;;;;22.30;9.57;;;14.30;99.90;;;;;;4995486;28;20573;-64
2024/03/22 08:44:22;;;;;;;19.27;8.60;;;14.30;99.90;;;;;;4984602;28;20033;-64
2024/03/22 08:46:49;;;;;;;19.65;8.07;;;14.30;99.90;;;;;;4982460;28;20399;-63
2024/03/22 08:49:14;;;;;;;23.67;10.02;;;14.20;99.90;;;;;;4978377;28;20018;-63
2024/03/22 08:51:41;;;;;;;22.20;9.00;;;14.20;99.90;;;;;;4981437;28;20164;-63
2024/03/22 08:54:06;;;;;;;18.90;9.25;;;14.30;99.90;;;;;;4969371;28;20106;-64
2024/03/22 08:56:32;;;;;;;22.17;9.35;;;14.30;99.90;;;;;;4967480;28;20936;-63
2024/03/22 08:58:59;;;;;;;22.65;10.10;;;14.20;99.90;;;;;;4966698;28;20030;-63
2024/03/22 09:01:25;;;;;;;23.63;11.32;;;14.10;99.90;;;;;;4971551;28;20370;-64
2024/03/22 09:03:51;;;;;;;19.00;7.70;;;14.20;99.90;;;;;;4973557;28;20029;-64
2024/03/22 09:06:16;;;;;;;20.95;8.70;;;14.20;99.90;;;;;;4971703;28;20015;-64
2024/03/22 09:08:42;;;;;;;23.45;10.18;;;14.30;99.90;;;;;;4972293;28;20501;-64
2024/03/22 09:11:08;;;;;;;24.20;9.00;;;14.40;99.90;;;;;;4971536;28;20076;-63
2024/03/22 09:13:35;;;;;;;17.65;7.90;;;14.50;99.90;;;;;;4976540;28;20034;-64
2024/03/22 09:16:01;;;;;;;20.77;8.57;;;14.50;99.90;;;;;;4972677;28;20083;-64
2024/03/22 09:18:27;;;;;;;20.75;8.55;;;14.40;99.90;;;;;;4974983;28;20035;-64
2024/03/22 09:20:53;;;;;;;16.63;6.93;;;14.40;99.90;;;;;;4977080;28;20390;-64
2024/03/22 09:23:19;;;;;;;18.25;9.00;;;14.40;99.90;;;;;;4973608;28;20393;-63
2024/03/22 09:25:49;;;;;;;15.68;6.85;;;14.40;99.90;;;;;;4978492;28;20041;-63
2024/03/22 09:28:14;;;;;;;20.10;9.07;;;14.40;99.90;;;;;;4965017;28;20030;-64
2024/03/22 09:30:40;;;;;;;16.25;6.57;;;14.50;99.90;;;;;;4975811;28;20045;-64
2024/03/22 09:33:07;;;;;;;21.55;9.48;;;14.50;99.90;;;;;;4995217;28;20024;-64
2024/03/22 09:35:36;;;;;;;19.52;7.22;;;14.70;99.90;;;;;;5003659;28;20371;-64
2024/03/22 09:38:02;;;;;;;18.60;9.10;;;14.70;99.90;;;;;;4973695;28;20111;-64
2024/03/22 09:40:28;;;;;;;18.50;7.95;;;14.80;99.90;;;;;;4979694;28;20019;-64
2024/03/22 09:42:54;;;;;;;21.95;9.10;;;15.10;99.90;;;;;;4976302;28;20506;-64
2024/03/22 09:45:20;;;;;;;16.30;7.32;;;15.30;99.90;;;;;;4976810;28;20034;-64
2024/03/22 09:47:48;;;;;;;18.23;7.63;;;15.40;99.90;;;;;;4978676;28;20068;-64
2024/03/22 09:50:14;;;;;;;13.43;6.65;;;15.50;99.90;;;;;;4976257;28;20022;-64
2024/03/22 09:52:41;;;;;;;16.90;8.35;;;15.60;99.90;;;;;;4974953;28;20294;-64
2024/03/22 09:55:08;;;;;;;19.60;7.97;;;15.40;99.90;;;;;;4974061;28;20073;-64
2024/03/22 09:57:37;;;;;;;17.40;7.95;;;15.60;99.90;;;;;;4973819;28;20050;-64
2024/03/22 10:00:08;;;;;;;18.60;7.82;;;15.80;99.90;;;;;;4974630;28;20022;-64
2024/03/22 10:02:34;;;;;;;20.88;8.05;;;15.80;99.90;;;;;;4974429;28;20039;-64
2024/03/22 10:05:02;;;;;;;21.67;6.75;;;15.70;99.90;;;;;;4980150;28;20018;-64
2024/03/22 10:07:28;;;;;;;21.02;7.47;;;15.80;99.90;;;;;;4972351;28;20019;-64
2024/03/22 10:09:53;;;;;;;12.68;5.78;;;15.70;99.90;;;;;;4979787;28;20037;-64
2024/03/22 10:12:20;;;;;;;20.20;7.97;;;15.50;99.90;;;;;;4976409;28;20030;-64
2024/03/22 10:14:46;;;;;;;19.73;8.55;;;15.40;99.90;;;;;;4975604;28;20049;-64
2024/03/22 10:17:11;;;;;;;17.17;7.15;;;15.50;99.90;;;;;;4976441;28;20035;-64
2024/03/22 10:19:37;;;;;;;20.05;7.68;;;15.50;99.90;;;;;;4973827;28;20546;-65
2024/03/22 10:22:03;;;;;;;18.65;8.00;;;15.40;99.90;;;;;;4977846;28;20026;-64
2024/03/22 10:24:30;;;;;;;13.73;6.32;;;15.30;99.90;;;;;;4974413;28;20033;-64
2024/03/22 10:26:56;;;;;;;17.67;7.10;;;15.30;99.90;;;;;;4965313;28;20031;-64
2024/03/22 10:29:22;;;;;;;19.90;8.52;;;15.30;99.90;;;;;;4977327;28;20449;-64
2024/03/22 10:31:50;;;;;;;17.20;6.70;;;15.50;99.90;;;;;;4974313;28;20282;-64
2024/03/22 10:34:17;;;;;;;21.35;8.23;;;15.70;99.90;;;;;;4972488;28;20031;-64
2024/03/22 10:36:44;;;;;;;16.90;7.47;;;15.90;99.90;;;;;;4985577;28;20120;-64
2024/03/22 10:39:12;;;;;;;16.58;6.70;;;16.10;99.90;;;;;;4975721;28;20552;-64
2024/03/22 10:41:38;;;;;;;20.58;7.85;;;16.40;99.90;;;;;;4977650;28;20391;-64
2024/03/22 10:44:04;;;;;;;18.75;7.20;;;16.30;99.90;;;;;;4978950;28;20029;-64
2024/03/22 10:46:30;;;;;;;16.15;6.47;;;16.40;99.90;;;;;;4976330;28;20349;-64
2024/03/22 10:48:57;;;;;;;17.98;8.63;;;16.60;99.90;;;;;;4975260;28;20466;-64
2024/03/22 10:51:26;;;;;;;16.42;7.85;;;16.50;99.90;;;;;;4977934;28;20026;-64
2024/03/22 10:53:54;;;;;;;17.27;9.30;;;16.50;99.80;;;;;;4976635;28;20113;-64
2024/03/22 10:56:21;;;;;;;14.05;6.57;;;16.20;99.80;;;;;;4973851;28;20054;-64
2024/03/22 10:58:49;;;;;;;15.98;6.75;;;15.90;99.90;;;;;;4978018;28;20446;-64
2024/03/22 11:01:33;;;;;;;16.35;7.78;;;15.80;99.90;;;;;;4976035;28;20121;-64
2024/03/22 11:04:12;;;;;;;16.08;6.50;;;15.70;99.90;;;;;;4972482;28;20434;-64
2024/03/22 11:06:37;;;;;;;17.45;7.75;;;15.70;99.90;;;;;;4976008;28;20022;-64
2024/03/22 11:09:06;;;;;;;18.50;6.75;;;15.80;99.90;;;;;;4976439;28;20049;-64
2024/03/22 11:11:37;;;;;;;18.35;8.40;;;15.80;99.90;;;;;;4978277;28;20022;-64
2024/03/22 11:14:03;;;;;;;16.63;8.18;;;15.90;99.90;;;;;;4976584;28;20067;-64
2024/03/22 11:16:29;;;;;;;23.73;8.82;;;15.90;99.90;;;;;;4978882;28;20051;-65
2024/03/22 11:18:55;;;;;;;17.60;8.38;;;15.80;99.90;;;;;;4978997;28;20414;-65
2024/03/22 11:21:20;;;;;;;14.85;6.10;;;15.90;99.90;;;;;;4974916;28;20054;-64
2024/03/22 11:23:47;;;;;;;15.07;7.80;;;16.10;99.90;;;;;;4976663;28;20101;-64
2024/03/22 11:26:12;;;;;;;14.88;6.82;;;16.10;99.80;;;;;;4976041;28;20442;-63
2024/03/22 11:28:42;;;;;;;15.13;6.38;;;16.20;99.90;;;;;;4977066;28;20058;-63
2024/03/22 11:31:08;;;;;;;16.02;6.47;;;16.30;99.60;;;;;;4977340;28;20101;-64
2024/03/22 11:33:34;;;;;;;15.50;6.43;;;16.40;98.40;;;;;;4985634;28;20149;-64
2024/03/22 11:36:00;;;;;;;12.73;4.63;;;16.40;98.90;;;;;;4975204;28;20056;-64
2024/03/22 11:38:27;;;;;;;14.55;6.00;;;16.50;98.70;;;;;;4977592;28;20140;-64
2024/03/22 11:40:54;;;;;;;13.25;5.97;;;16.60;98.80;;;;;;4974705;28;20057;-64
2024/03/22 11:43:20;;;;;;;14.90;6.40;;;16.70;97.70;;;;;;4970826;28;20084;-64
2024/03/22 11:45:45;;;;;;;18.83;5.93;;;16.50;98.70;;;;;;4976357;28;20038;-64
2024/03/22 11:48:11;;;;;;;16.55;6.72;;;16.90;98.80;;;;;;4976369;28;20043;-65
2024/03/22 11:50:40;;;;;;;15.75;6.35;;;17.20;97.40;;;;;;4971774;28;20061;-64
2024/03/22 11:53:06;;;;;;;15.38;6.60;;;17.10;97.80;;;;;;4976880;28;20469;-65
2024/03/22 11:55:32;;;;;;;15.82;5.97;;;16.90;98.90;;;;;;4977027;28;20037;-64
2024/03/22 11:57:58;;;;;;;17.00;7.05;;;16.80;99.20;;;;;;4973886;28;20037;-65
2024/03/22 12:00:25;;;;;;;19.15;8.18;;;16.70;99.90;;;;;;4977172;28;20041;-65
2024/03/22 12:02:51;;;;;;;15.40;6.40;;;16.50;99.70;;;;;;4975210;28;20026;-65
2024/03/22 12:05:21;;;;;;;13.82;5.93;;;16.30;99.90;;;;;;4977839;28;20038;-65
2024/03/22 12:07:46;;;;;;;13.63;5.97;;;16.40;99.70;;;;;;4975691;28;20459;-65
2024/03/22 12:10:12;;;;;;;15.48;6.05;;;16.20;99.90;;;;;;4964802;28;20121;-64
2024/03/22 12:12:38;;;;;;;13.10;5.13;;;16.20;99.90;;;;;;4976297;28;20061;-64
2024/03/22 12:15:04;;;;;;;14.55;6.45;;;15.80;99.90;;;;;;4974138;28;20046;-64
2024/03/22 12:17:30;;;;;;;15.45;7.45;;;15.70;99.90;;;;;;4972542;28;20550;-64
2024/03/22 12:19:55;;;;;;;18.40;7.85;;;15.60;99.90;;;;;;4973153;28;20209;-64
2024/03/22 12:22:22;;;;;;;19.08;6.55;;;15.50;99.90;;;;;;4975877;28;20068;-64
2024/03/22 12:24:48;;;;;;;12.80;5.38;;;15.50;99.90;;;;;;4968197;28;20054;-64
2024/03/22 12:27:13;;;;;;;17.75;6.40;;;15.40;99.90;;;;;;4974632;28;20385;-64